Time;durP1;ratioP1;P1;durP2;ratioP2;P2;SDS_P1;SDS_P2;PMS_P1;PMS_P2;Temp;Humidity;BMP_temperature;BMP_pressure;BME280_temperature;BME280_humidity;BME280_pressure;Samples;Min_cycle;Max_cycle;Signal;HPM_P1;HPM_P2
2022/06/07 00:01:25;;;;;;;2.40;1.85;;;15.40;69.90;;;;;;5021209;28;20513;-76
2022/06/07 00:03:51;;;;;;;2.95;1.92;;;15.40;71.30;;;;;;5017333;28;20438;-76
2022/06/07 00:06:18;;;;;;;1.90;1.70;;;15.40;69.90;;;;;;5021623;28;20415;-76
2022/06/07 00:08:45;;;;;;;2.33;1.90;;;15.40;69.60;;;;;;5020649;28;20442;-77
2022/06/07 00:11:13;;;;;;;2.40;1.80;;;15.40;69.60;;;;;;5017713;28;20440;-76
2022/06/07 00:13:40;;;;;;;2.42;1.90;;;15.30;70.40;;;;;;5015877;28;20501;-76
2022/06/07 00:16:07;;;;;;;2.40;2.20;;;15.30;69.70;;;;;;5016213;28;20486;-77
2022/06/07 00:18:34;;;;;;;2.30;2.10;;;15.30;69.80;;;;;;5018320;28;20450;-76
2022/06/07 00:21:01;;;;;;;2.28;1.98;;;15.20;69.90;;;;;;5017325;28;20419;-76
2022/06/07 00:23:28;;;;;;;2.38;2.17;;;15.20;70.20;;;;;;5024384;28;20433;-77
2022/06/07 00:25:55;;;;;;;2.15;1.70;;;15.20;70.10;;;;;;5022650;28;20430;-77
2022/06/07 00:28:24;;;;;;;2.13;1.87;;;15.20;69.70;;;;;;5022324;28;20461;-76
2022/06/07 00:30:52;;;;;;;2.60;2.27;;;15.10;69.50;;;;;;5022485;28;20446;-76
2022/06/07 00:33:20;;;;;;;2.20;1.83;;;15.20;70.40;;;;;;5027579;28;20448;-76
2022/06/07 00:35:48;;;;;;;3.07;2.10;;;15.10;70.70;;;;;;5025228;28;20455;-77
2022/06/07 00:38:15;;;;;;;2.20;2.00;;;15.10;71.10;;;;;;5026063;28;20430;-75
2022/06/07 00:40:43;;;;;;;3.30;2.20;;;15.10;71.70;;;;;;5024069;28;20514;-75
2022/06/07 00:43:10;;;;;;;3.45;2.00;;;15.00;71.30;;;;;;5015130;28;21187;-75
2022/06/07 00:45:39;;;;;;;2.30;2.10;;;15.00;71.70;;;;;;5023897;28;20512;-75
2022/06/07 00:48:07;;;;;;;2.10;1.90;;;15.00;71.90;;;;;;5025134;28;20445;-74
2022/06/07 00:50:42;;;;;;;2.10;1.90;;;14.90;72.30;;;;;;5022612;28;20450;-74
2022/06/07 00:53:21;;;;;;;2.75;2.30;;;14.90;71.80;;;;;;5023097;28;20522;-74
2022/06/07 00:55:49;;;;;;;2.45;2.10;;;14.80;72.80;;;;;;5021378;28;20454;-74
2022/06/07 00:58:15;;;;;;;2.42;2.10;;;14.80;73.00;;;;;;5023596;28;20441;-74
2022/06/07 01:00:44;;;;;;;2.88;2.10;;;14.80;72.30;;;;;;5021349;28;20517;-74
2022/06/07 01:03:11;;;;;;;4.57;2.30;;;14.80;73.50;;;;;;5024620;28;21085;-73
2022/06/07 01:05:38;;;;;;;3.38;2.05;;;14.80;72.60;;;;;;5025018;28;20498;-73
2022/06/07 01:10:52;;;;;;;2.80;2.13;;;14.70;72.80;;;;;;5016680;28;20581;-73
2022/06/07 01:13:23;;;;;;;3.38;2.20;;;14.70;72.90;;;;;;5020781;28;20435;-73
2022/06/07 01:15:51;;;;;;;3.20;2.20;;;14.60;73.50;;;;;;5042823;22;20457;-64
2022/06/07 01:18:18;;;;;;;2.50;2.10;;;14.60;73.80;;;;;;5022442;28;20528;-65
2022/06/07 01:20:45;;;;;;;2.42;2.22;;;14.60;74.80;;;;;;5027191;28;20427;-65
2022/06/07 01:23:13;;;;;;;2.78;2.47;;;14.50;74.70;;;;;;5021512;28;20462;-65
2022/06/07 01:25:40;;;;;;;2.63;2.42;;;14.50;74.70;;;;;;5030244;28;20430;-64
2022/06/07 01:28:07;;;;;;;2.30;2.10;;;14.40;75.00;;;;;;5028833;28;20441;-64
2022/06/07 01:30:34;;;;;;;2.90;2.30;;;14.40;75.40;;;;;;5026674;28;20435;-66
2022/06/07 01:33:00;;;;;;;2.50;2.20;;;14.40;74.90;;;;;;5020070;28;20435;-64
2022/06/07 01:35:27;;;;;;;3.88;2.47;;;14.40;76.20;;;;;;5024624;28;20431;-64
2022/06/07 01:37:54;;;;;;;2.60;2.40;;;14.40;74.70;;;;;;5027921;28;20435;-66
2022/06/07 01:43:07;;;;;;;3.40;2.45;;;14.30;74.60;;;;;;5026205;28;20496;-64
2022/06/07 01:45:33;;;;;;;2.50;2.30;;;14.20;76.30;;;;;;5029795;28;20435;-67
2022/06/07 01:48:00;;;;;;;3.67;2.70;;;14.20;76.80;;;;;;5029179;28;20441;-65
2022/06/07 01:50:27;;;;;;;2.92;2.60;;;14.20;75.30;;;;;;5029354;28;20437;-65
2022/06/07 01:52:54;;;;;;;3.28;2.60;;;14.20;75.00;;;;;;5027860;28;20445;-65
2022/06/07 01:55:22;;;;;;;2.53;2.10;;;14.20;75.30;;;;;;5024759;28;20430;-65
2022/06/07 01:57:49;;;;;;;3.03;2.30;;;14.10;76.10;;;;;;5028080;28;20442;-65
2022/06/07 02:00:16;;;;;;;2.10;2.00;;;14.10;75.50;;;;;;5022710;28;20426;-66
2022/06/07 02:02:43;;;;;;;2.50;2.30;;;14.10;75.50;;;;;;5028676;28;20939;-64
2022/06/07 02:05:10;;;;;;;2.73;2.30;;;14.10;75.20;;;;;;5028018;28;20791;-66
2022/06/07 02:07:37;;;;;;;3.00;2.67;;;14.00;76.30;;;;;;5027155;28;20809;-66
2022/06/07 02:10:04;;;;;;;2.95;2.50;;;14.00;76.20;;;;;;5028394;28;20435;-65
2022/06/07 02:12:33;;;;;;;3.55;2.30;;;14.00;76.20;;;;;;5026392;28;20441;-64
2022/06/07 02:15:00;;;;;;;4.40;2.30;;;13.90;76.40;;;;;;5027768;28;20935;-63
2022/06/07 02:17:27;;;;;;;2.50;2.30;;;14.00;75.60;;;;;;5029042;28;20431;-64
2022/06/07 02:19:54;;;;;;;2.60;1.88;;;13.90;76.10;;;;;;5025937;28;20443;-65
2022/06/07 02:22:21;;;;;;;3.95;2.40;;;13.90;76.00;;;;;;5022032;28;20458;-66
2022/06/07 02:24:48;;;;;;;3.40;2.40;;;13.90;76.80;;;;;;5027389;28;20430;-65
2022/06/07 02:27:19;;;;;;;2.28;2.08;;;13.90;77.20;;;;;;5025098;28;20901;-65
2022/06/07 02:29:50;;;;;;;2.80;2.40;;;13.90;76.70;;;;;;5027514;28;20430;-64
2022/06/07 02:32:21;;;;;;;2.63;2.22;;;13.90;76.50;;;;;;5022701;28;20917;-66
2022/06/07 02:34:52;;;;;;;2.38;2.10;;;13.90;76.90;;;;;;5029240;28;20428;-66
2022/06/07 02:37:19;;;;;;;2.60;2.33;;;14.00;77.10;;;;;;5028223;28;20462;-64
2022/06/07 02:39:46;;;;;;;2.50;2.30;;;14.00;76.80;;;;;;5027760;28;20633;-63
2022/06/07 02:42:17;;;;;;;2.33;2.13;;;13.90;76.90;;;;;;5025658;28;20438;-64
2022/06/07 02:44:43;;;;;;;4.40;2.20;;;13.90;76.80;;;;;;5028589;28;20438;-64
2022/06/07 02:47:11;;;;;;;2.70;2.20;;;13.90;77.30;;;;;;5029135;28;20497;-64
2022/06/07 02:49:38;;;;;;;2.70;2.17;;;13.80;75.60;;;;;;5028066;28;20434;-65
2022/06/07 02:52:06;;;;;;;2.25;1.95;;;13.80;76.20;;;;;;5026996;28;20462;-66
2022/06/07 02:54:33;;;;;;;2.88;2.00;;;13.80;76.30;;;;;;5026446;28;20431;-65
2022/06/07 02:57:00;;;;;;;2.70;2.03;;;13.80;76.60;;;;;;5027610;28;20429;-64
2022/06/07 02:59:26;;;;;;;3.17;2.00;;;13.70;76.00;;;;;;5027269;28;20417;-66
2022/06/07 03:01:53;;;;;;;2.30;1.88;;;13.80;75.70;;;;;;5026739;28;20462;-64
2022/06/07 03:04:21;;;;;;;3.15;2.10;;;13.80;74.20;;;;;;5028203;28;20435;-65
2022/06/07 03:06:48;;;;;;;2.92;2.10;;;13.80;75.40;;;;;;5028694;28;20422;-66
2022/06/07 03:09:15;;;;;;;2.40;2.00;;;13.80;73.90;;;;;;5026417;28;20442;-65
2022/06/07 03:11:42;;;;;;;2.35;2.10;;;13.80;75.20;;;;;;5028456;28;20446;-63
2022/06/07 03:14:09;;;;;;;2.88;2.10;;;13.80;74.10;;;;;;5028354;28;20435;-65
2022/06/07 03:16:36;;;;;;;2.30;1.80;;;13.80;73.90;;;;;;5027693;28;20423;-65
2022/06/07 03:19:03;;;;;;;2.05;1.85;;;13.80;74.10;;;;;;5027505;28;20859;-66
2022/06/07 03:21:31;;;;;;;2.00;1.87;;;13.80;73.70;;;;;;5028320;28;20986;-65
2022/06/07 03:23:58;;;;;;;2.45;2.10;;;13.80;74.40;;;;;;5021597;28;20431;-66
2022/06/07 03:26:25;;;;;;;2.90;2.00;;;13.70;73.80;;;;;;5026100;28;20946;-66
2022/06/07 03:28:52;;;;;;;3.00;2.20;;;13.70;73.80;;;;;;5026563;28;20434;-66
2022/06/07 03:31:19;;;;;;;2.10;1.80;;;13.80;74.30;;;;;;5027767;28;20442;-65
2022/06/07 03:33:47;;;;;;;3.20;2.90;;;13.70;74.20;;;;;;5025001;28;20438;-66
2022/06/07 03:36:16;;;;;;;2.50;2.30;;;13.70;75.40;;;;;;5017921;28;20431;-65
2022/06/07 03:38:45;;;;;;;2.50;2.17;;;13.70;74.40;;;;;;5024117;28;20461;-66
2022/06/07 03:41:17;;;;;;;2.50;2.30;;;13.70;74.60;;;;;;5021258;28;20438;-65
2022/06/07 03:43:44;;;;;;;2.72;2.53;;;13.70;75.50;;;;;;5027417;28;20952;-64
2022/06/07 03:46:14;;;;;;;2.78;2.40;;;13.70;74.60;;;;;;5019985;28;20424;-64
2022/06/07 03:48:42;;;;;;;3.25;2.38;;;13.70;74.60;;;;;;5011565;28;20431;-64
2022/06/07 03:51:09;;;;;;;2.67;2.20;;;13.60;75.70;;;;;;5014795;28;20430;-64
2022/06/07 03:53:36;;;;;;;2.73;2.30;;;13.60;75.20;;;;;;5026185;28;20442;-63
2022/06/07 03:56:05;;;;;;;2.35;2.15;;;13.60;75.80;;;;;;5021428;28;20437;-64
2022/06/07 03:58:32;;;;;;;3.20;2.25;;;13.60;75.10;;;;;;5025288;28;20536;-64
2022/06/07 04:01:01;;;;;;;3.05;2.20;;;13.60;75.80;;;;;;5022844;28;20427;-64
2022/06/07 04:03:29;;;;;;;2.90;2.00;;;13.60;75.30;;;;;;5026224;28;20438;-65
2022/06/07 04:05:57;;;;;;;2.50;2.30;;;13.70;75.50;;;;;;5022885;28;20434;-65
2022/06/07 04:08:25;;;;;;;3.90;2.30;;;13.70;75.40;;;;;;5022032;28;20443;-65
2022/06/07 04:10:55;;;;;;;2.65;2.25;;;13.70;75.80;;;;;;5023582;28;20925;-65
2022/06/07 04:13:27;;;;;;;2.65;2.30;;;13.60;76.00;;;;;;5019148;28;20476;-70
2022/06/07 04:15:54;;;;;;;2.40;2.20;;;13.70;75.30;;;;;;5017708;28;20443;-64
2022/06/07 04:18:21;;;;;;;3.40;2.30;;;13.70;75.60;;;;;;5020868;28;20442;-64
2022/06/07 04:20:48;;;;;;;2.70;2.42;;;13.80;75.30;;;;;;5022986;28;20430;-64
2022/06/07 04:23:18;;;;;;;2.22;2.00;;;13.80;75.00;;;;;;5024823;28;20443;-64
2022/06/07 04:25:44;;;;;;;5.95;2.70;;;13.80;75.40;;;;;;5021701;28;20514;-63
2022/06/07 04:28:12;;;;;;;2.77;2.10;;;13.80;76.30;;;;;;5016193;28;20426;-65
2022/06/07 04:30:43;;;;;;;2.70;2.28;;;13.90;75.50;;;;;;5021279;28;20427;-67
2022/06/07 04:33:10;;;;;;;1.95;1.85;;;13.90;75.20;;;;;;5023112;28;20439;-65
2022/06/07 04:35:37;;;;;;;3.63;2.40;;;14.00;74.90;;;;;;5027189;28;20423;-65
2022/06/07 04:38:04;;;;;;;2.40;2.20;;;13.90;75.00;;;;;;5022963;28;20455;-65
2022/06/07 04:40:31;;;;;;;2.65;2.15;;;13.90;75.30;;;;;;5026946;28;20808;-65
2022/06/07 04:42:58;;;;;;;2.60;2.10;;;13.90;75.00;;;;;;5014967;28;20809;-65
2022/06/07 04:45:25;;;;;;;3.35;2.35;;;14.00;75.20;;;;;;5024043;28;20805;-65
2022/06/07 04:47:53;;;;;;;4.30;3.08;;;14.00;74.80;;;;;;5021571;28;20415;-68
2022/06/07 04:50:20;;;;;;;4.00;2.30;;;14.00;75.20;;;;;;5018170;28;20434;-67
2022/06/07 04:52:48;;;;;;;3.10;2.30;;;14.20;74.50;;;;;;5023639;28;20438;-64
2022/06/07 04:55:17;;;;;;;2.40;2.20;;;14.20;75.30;;;;;;5026500;28;20431;-64
2022/06/07 04:57:44;;;;;;;3.58;2.40;;;14.20;75.40;;;;;;5023455;28;20517;-66
2022/06/07 05:00:15;;;;;;;2.50;2.25;;;14.30;74.70;;;;;;5025442;28;20418;-64
2022/06/07 05:02:42;;;;;;;2.30;2.10;;;14.40;74.40;;;;;;5026015;28;20426;-66
2022/06/07 05:05:11;;;;;;;2.22;2.00;;;14.40;73.10;;;;;;5026655;28;20434;-66
2022/06/07 05:07:38;;;;;;;2.72;2.30;;;14.50;73.50;;;;;;5018145;28;20480;-65
2022/06/07 05:10:08;;;;;;;2.30;2.00;;;14.60;73.00;;;;;;5025295;28;20450;-66
2022/06/07 05:12:35;;;;;;;2.00;1.80;;;14.60;72.30;;;;;;5022112;28;20814;-66
2022/06/07 05:15:03;;;;;;;3.95;2.10;;;14.70;72.20;;;;;;5022834;28;20974;-65
2022/06/07 05:17:30;;;;;;;3.70;2.15;;;14.80;71.60;;;;;;5021345;28;20437;-66
2022/06/07 05:19:57;;;;;;;2.50;2.00;;;14.90;72.10;;;;;;5030009;28;20450;-66
2022/06/07 05:22:27;;;;;;;2.22;1.98;;;14.90;71.50;;;;;;5027242;28;20427;-65
2022/06/07 05:24:54;;;;;;;2.35;2.15;;;14.90;71.40;;;;;;5029286;28;20434;-67
2022/06/07 05:27:24;;;;;;;2.40;1.80;;;15.00;70.80;;;;;;5018819;28;20423;-67
2022/06/07 05:29:52;;;;;;;2.37;1.90;;;15.10;70.80;;;;;;5025456;28;20537;-66
2022/06/07 05:32:20;;;;;;;2.83;2.20;;;15.20;72.10;;;;;;5030316;28;20426;-67
2022/06/07 05:34:47;;;;;;;2.47;1.92;;;15.20;70.60;;;;;;5030499;28;20434;-67
2022/06/07 05:37:16;;;;;;;3.00;1.80;;;15.30;71.00;;;;;;5030447;28;20443;-67
2022/06/07 05:39:44;;;;;;;2.65;1.73;;;15.40;69.50;;;;;;5029202;28;20446;-67
2022/06/07 05:42:12;;;;;;;3.17;1.80;;;15.50;69.30;;;;;;5015343;28;20420;-67
2022/06/07 05:44:39;;;;;;;2.90;2.07;;;15.60;69.70;;;;;;5026710;28;21061;-66
2022/06/07 05:47:07;;;;;;;3.33;1.98;;;15.70;69.90;;;;;;5030060;28;20501;-66
2022/06/07 05:49:35;;;;;;;2.90;1.73;;;15.70;67.50;;;;;;5033302;28;20430;-69
2022/06/07 05:52:09;;;;;;;3.60;2.10;;;15.80;67.70;;;;;;5054148;28;20433;-66
2022/06/07 05:54:38;;;;;;;2.55;1.63;;;15.90;67.00;;;;;;5052566;28;20889;-67
2022/06/07 05:57:07;;;;;;;2.20;2.00;;;16.00;65.90;;;;;;5045959;28;20423;-68
2022/06/07 05:59:34;;;;;;;3.80;1.98;;;16.10;65.00;;;;;;5041992;28;20430;-68
2022/06/07 06:02:01;;;;;;;3.23;1.80;;;16.10;64.50;;;;;;5057139;28;20486;-67
2022/06/07 06:04:28;;;;;;;2.60;1.70;;;16.30;62.00;;;;;;5050964;28;20419;-68
2022/06/07 06:06:56;;;;;;;2.58;2.00;;;16.40;61.00;;;;;;5052560;28;20414;-68
2022/06/07 06:12:09;;;;;;;3.30;1.80;;;16.70;60.70;;;;;;5045166;28;20963;-68
2022/06/07 06:14:36;;;;;;;2.83;1.80;;;16.80;58.60;;;;;;5034641;28;20438;-67
2022/06/07 06:17:03;;;;;;;3.28;2.00;;;16.80;58.50;;;;;;5045056;28;20431;-67
2022/06/07 06:19:30;;;;;;;3.10;1.40;;;16.80;59.70;;;;;;5051630;28;20780;-66
2022/06/07 06:21:57;;;;;;;2.80;1.70;;;17.00;59.00;;;;;;5036097;28;20431;-68
2022/06/07 06:24:25;;;;;;;1.77;1.50;;;17.00;57.20;;;;;;5039643;28;20415;-67
2022/06/07 06:26:54;;;;;;;1.83;1.50;;;17.00;57.10;;;;;;5035782;28;20446;-66
2022/06/07 06:29:23;;;;;;;1.65;1.20;;;17.10;57.50;;;;;;5028876;28;20444;-67
2022/06/07 06:31:51;;;;;;;3.80;1.35;;;17.10;56.30;;;;;;5028439;28;20435;-67
2022/06/07 06:34:18;;;;;;;2.95;1.38;;;17.10;57.50;;;;;;5026164;28;20921;-67
2022/06/07 06:36:45;;;;;;;2.77;1.30;;;17.10;57.60;;;;;;5030282;28;20415;-66
2022/06/07 06:39:12;;;;;;;3.25;1.30;;;17.10;57.10;;;;;;5029796;28;20446;-67
2022/06/07 06:41:41;;;;;;;4.60;1.30;;;17.20;57.50;;;;;;5025869;28;21010;-64
2022/06/07 06:44:10;;;;;;;2.93;1.50;;;17.20;56.90;;;;;;5029508;28;20450;-67
2022/06/07 06:46:40;;;;;;;4.43;1.58;;;17.20;57.30;;;;;;5030739;28;20483;-66
2022/06/07 06:49:07;;;;;;;4.00;1.30;;;17.30;58.20;;;;;;5022139;28;20937;-65
2022/06/07 06:51:35;;;;;;;4.10;1.50;;;17.40;57.50;;;;;;5026240;28;20951;-67
2022/06/07 06:54:04;;;;;;;5.90;1.42;;;17.60;57.20;;;;;;5028639;28;20423;-67
2022/06/07 06:56:31;;;;;;;1.65;1.15;;;17.70;56.10;;;;;;5027961;28;20421;-66
2022/06/07 06:58:59;;;;;;;1.92;1.20;;;17.70;56.80;;;;;;5017504;28;20419;-66
2022/06/07 07:01:29;;;;;;;3.05;1.40;;;17.70;57.30;;;;;;5029332;28;20434;-68
2022/06/07 07:03:58;;;;;;;2.40;1.20;;;17.80;58.20;;;;;;5029803;28;20419;-68
2022/06/07 07:06:26;;;;;;;2.28;1.40;;;17.90;56.20;;;;;;5028770;28;20884;-68
2022/06/07 07:08:54;;;;;;;2.70;1.40;;;17.90;56.60;;;;;;5029996;28;20919;-67
2022/06/07 07:11:24;;;;;;;2.42;1.30;;;17.90;57.30;;;;;;5026360;28;20431;-66
2022/06/07 07:13:53;;;;;;;2.17;1.20;;;17.90;56.80;;;;;;5027339;28;20934;-66
2022/06/07 07:16:23;;;;;;;1.67;1.20;;;17.80;56.20;;;;;;5025035;28;20438;-67
2022/06/07 07:18:50;;;;;;;3.55;1.65;;;17.60;56.70;;;;;;5028824;28;20426;-66
2022/06/07 07:21:21;;;;;;;2.38;1.20;;;17.60;57.10;;;;;;5026910;28;20419;-64
2022/06/07 07:23:48;;;;;;;1.42;1.10;;;17.60;57.20;;;;;;5023229;28;20446;-66
2022/06/07 07:26:17;;;;;;;1.73;1.10;;;17.60;57.10;;;;;;5026744;28;20425;-67
2022/06/07 07:28:44;;;;;;;2.70;1.30;;;17.60;57.60;;;;;;5025755;28;20810;-66
2022/06/07 07:31:14;;;;;;;2.00;1.20;;;17.70;57.10;;;;;;5028510;28;20435;-66
2022/06/07 07:33:41;;;;;;;2.45;1.23;;;17.80;57.30;;;;;;5027522;28;20429;-66
2022/06/07 07:36:09;;;;;;;4.15;1.30;;;17.90;57.20;;;;;;5020240;28;20933;-66
2022/06/07 07:38:39;;;;;;;2.30;1.10;;;18.10;57.90;;;;;;5028463;28;20438;-67
2022/06/07 07:41:16;;;;;;;1.50;1.10;;;18.20;56.60;;;;;;5018381;28;20508;-68
2022/06/07 07:43:44;;;;;;;2.00;1.30;;;18.30;57.10;;;;;;5028365;28;20427;-67
2022/06/07 07:46:12;;;;;;;2.00;1.30;;;18.50;57.60;;;;;;5027562;28;20514;-67
2022/06/07 07:48:39;;;;;;;2.50;1.55;;;18.70;56.70;;;;;;5029506;28;20480;-67
2022/06/07 07:51:08;;;;;;;2.30;1.20;;;18.80;55.80;;;;;;5027995;28;20906;-66
2022/06/07 07:53:35;;;;;;;1.75;1.05;;;18.70;55.60;;;;;;5027304;28;20451;-68
2022/06/07 07:56:08;;;;;;;2.78;1.40;;;18.60;56.30;;;;;;5026321;28;20441;-66
2022/06/07 07:58:36;;;;;;;2.13;1.30;;;18.50;56.40;;;;;;5022385;28;20471;-66
2022/06/07 08:01:08;;;;;;;2.67;1.50;;;18.50;56.40;;;;;;5025672;28;20431;-67
2022/06/07 08:03:37;;;;;;;2.70;1.40;;;18.50;56.80;;;;;;5025263;28;20432;-68
2022/06/07 08:06:05;;;;;;;1.23;1.10;;;18.60;57.00;;;;;;5009012;28;20439;-67
2022/06/07 08:08:32;;;;;;;3.15;1.38;;;18.70;56.10;;;;;;5044181;23;20729;-66
2022/06/07 08:10:58;;;;;;;2.53;1.40;;;18.70;56.10;;;;;;5023858;28;20421;-66
2022/06/07 08:13:27;;;;;;;3.10;1.40;;;18.80;56.50;;;;;;5023206;28;20784;-68
2022/06/07 08:15:54;;;;;;;2.55;1.10;;;18.90;55.70;;;;;;5022983;28;20805;-68
2022/06/07 08:18:23;;;;;;;2.80;1.30;;;18.90;56.40;;;;;;5018107;28;20429;-67
2022/06/07 08:20:50;;;;;;;3.85;1.40;;;18.90;55.90;;;;;;5021669;28;20429;-67
2022/06/07 08:23:17;;;;;;;3.50;1.50;;;19.00;56.00;;;;;;5024433;28;20429;-68
2022/06/07 08:25:44;;;;;;;1.58;1.10;;;19.00;55.60;;;;;;5022168;28;20449;-68
2022/06/07 08:28:11;;;;;;;2.50;1.60;;;19.30;56.50;;;;;;5016042;28;20865;-68
2022/06/07 08:30:44;;;;;;;3.92;1.30;;;19.40;55.00;;;;;;5024895;28;20787;-67
2022/06/07 08:38:40;;;;;;;1.85;1.10;;;19.60;55.20;;;;;;5019079;28;20441;-67
2022/06/07 08:41:07;;;;;;;1.52;0.90;;;19.90;54.50;;;;;;5025426;28;20526;-66
2022/06/07 08:43:35;;;;;;;1.50;1.00;;;19.90;53.70;;;;;;5014583;28;20899;-67
2022/06/07 08:46:03;;;;;;;1.65;1.30;;;20.10;54.30;;;;;;5026208;28;20454;-67
2022/06/07 08:48:32;;;;;;;3.20;1.20;;;20.20;52.50;;;;;;5023767;28;20499;-67
2022/06/07 08:51:12;;;;;;;3.13;1.20;;;20.10;52.80;;;;;;5024916;28;20445;-68
2022/06/07 08:53:43;;;;;;;2.88;1.40;;;20.10;54.00;;;;;;5023506;28;20455;-67
2022/06/07 08:56:14;;;;;;;2.80;1.42;;;20.10;52.50;;;;;;5012447;28;20838;-66
2022/06/07 08:58:43;;;;;;;2.50;1.30;;;19.90;54.50;;;;;;5020804;28;20503;-68
2022/06/07 09:01:24;;;;;;;3.10;1.30;;;19.90;53.80;;;;;;5026660;28;20434;-67
2022/06/07 09:04:02;;;;;;;4.07;1.35;;;19.90;53.90;;;;;;5024795;28;20872;-67
2022/06/07 09:06:32;;;;;;;2.50;1.30;;;19.90;53.20;;;;;;5025622;28;20535;-68
2022/06/07 09:09:00;;;;;;;2.55;1.05;;;19.80;52.90;;;;;;5027930;28;20441;-67
2022/06/07 09:14:23;;;;;;;3.15;1.30;;;19.70;53.30;;;;;;5021325;28;20499;-67
2022/06/07 09:16:51;;;;;;;2.22;1.10;;;19.80;53.40;;;;;;5025773;28;20501;-68
2022/06/07 09:19:22;;;;;;;2.25;1.20;;;20.00;53.30;;;;;;5027458;28;20436;-68
2022/06/07 09:21:49;;;;;;;3.40;1.30;;;20.10;51.10;;;;;;5026699;28;20524;-68
2022/06/07 09:24:25;;;;;;;1.92;1.20;;;20.10;50.40;;;;;;5026093;28;20423;-69
2022/06/07 09:26:52;;;;;;;2.70;1.00;;;20.00;50.60;;;;;;5024191;28;20439;-68
2022/06/07 09:29:21;;;;;;;2.17;1.20;;;19.90;50.80;;;;;;5027735;28;20450;-68
2022/06/07 09:31:49;;;;;;;2.50;1.40;;;19.80;52.30;;;;;;5024305;28;20443;-68
2022/06/07 09:34:21;;;;;;;3.78;1.30;;;19.80;53.60;;;;;;5025628;28;20513;-68
2022/06/07 09:36:55;;;;;;;1.90;1.00;;;19.80;54.10;;;;;;5024685;28;20434;-69
2022/06/07 09:39:32;;;;;;;2.17;0.90;;;19.70;52.10;;;;;;5013424;28;20434;-69
2022/06/07 09:42:12;;;;;;;1.77;1.10;;;19.70;52.90;;;;;;5015289;28;20514;-69
2022/06/07 09:44:54;;;;;;;3.40;1.67;;;19.60;53.50;;;;;;5016616;28;20491;-70
2022/06/07 09:47:23;;;;;;;1.25;1.05;;;19.50;55.00;;;;;;5024280;28;20427;-69
2022/06/07 09:49:57;;;;;;;2.63;0.93;;;19.60;52.80;;;;;;5020471;28;20435;-69
2022/06/07 09:52:26;;;;;;;2.30;1.00;;;19.60;52.50;;;;;;5019717;28;20796;-70
2022/06/07 09:54:55;;;;;;;1.80;0.95;;;19.90;53.10;;;;;;5023037;28;20825;-69
2022/06/07 09:57:35;;;;;;;2.00;1.30;;;20.10;51.80;;;;;;5020225;28;20993;-70
2022/06/07 10:00:11;;;;;;;3.33;2.00;;;20.20;50.80;;;;;;5019979;28;20995;-70
2022/06/07 10:03:00;;;;;;;2.45;1.40;;;20.40;51.30;;;;;;5019383;28;20817;-70
2022/06/07 10:05:35;;;;;;;2.13;1.08;;;20.40;51.90;;;;;;5018364;28;20438;-69
2022/06/07 10:08:13;;;;;;;2.67;1.38;;;20.30;52.40;;;;;;5025706;28;20445;-70
2022/06/07 10:10:46;;;;;;;1.70;1.00;;;20.20;51.30;;;;;;5021701;28;20433;-70
2022/06/07 10:13:21;;;;;;;2.40;1.17;;;20.20;51.60;;;;;;5024006;28;20953;-70
2022/06/07 10:15:59;;;;;;;2.30;1.45;;;20.30;51.70;;;;;;5025861;28;20805;-70
2022/06/07 10:18:39;;;;;;;4.18;1.10;;;20.30;52.00;;;;;;5019768;28;20427;-69
2022/06/07 10:21:23;;;;;;;1.80;1.00;;;20.40;52.60;;;;;;5025245;28;20450;-70
2022/06/07 10:24:04;;;;;;;2.70;1.13;;;21.00;49.60;;;;;;5025557;28;20803;-70
2022/06/07 10:26:42;;;;;;;2.40;1.10;;;21.50;48.00;;;;;;5016451;28;20431;-69
2022/06/07 10:29:18;;;;;;;1.48;1.00;;;21.80;47.90;;;;;;5016271;28;20438;-68
2022/06/07 10:31:51;;;;;;;2.40;1.00;;;22.20;46.70;;;;;;5021234;28;20427;-67
2022/06/07 10:34:32;;;;;;;1.58;1.10;;;22.30;46.20;;;;;;5023973;28;20515;-69
2022/06/07 10:37:11;;;;;;;2.40;1.00;;;22.40;46.10;;;;;;5022689;28;20992;-68
2022/06/07 10:39:50;;;;;;;1.63;0.88;;;22.00;44.30;;;;;;5020264;28;20910;-68
2022/06/07 10:42:26;;;;;;;1.67;0.80;;;21.80;45.30;;;;;;5020403;28;20487;-67
2022/06/07 10:45:03;;;;;;;2.60;0.90;;;21.70;45.40;;;;;;5020328;28;20799;-67
2022/06/07 10:47:34;;;;;;;2.92;1.10;;;21.50;47.10;;;;;;5021758;28;20893;-68
2022/06/07 10:50:07;;;;;;;1.70;0.85;;;21.60;47.00;;;;;;5022283;28;20759;-69
2022/06/07 10:52:44;;;;;;;1.85;1.00;;;21.40;46.50;;;;;;5018854;28;20487;-68
2022/06/07 10:55:19;;;;;;;2.20;1.00;;;21.10;47.80;;;;;;5020438;28;20467;-68
2022/06/07 10:57:58;;;;;;;2.22;0.90;;;20.90;48.60;;;;;;5019182;28;20438;-67
2022/06/07 11:00:33;;;;;;;2.38;1.00;;;20.90;49.70;;;;;;5020487;28;20500;-68
2022/06/07 11:03:10;;;;;;;1.25;0.77;;;21.00;49.30;;;;;;5021207;28;20935;-67
2022/06/07 11:11:18;;;;;;;2.22;1.10;;;20.50;50.40;;;;;;5021037;28;20418;-70
2022/06/07 11:13:58;;;;;;;2.83;1.40;;;20.30;51.00;;;;;;5017281;28;20534;-68
2022/06/07 11:16:33;;;;;;;2.65;1.33;;;20.30;52.90;;;;;;5015382;28;20435;-68
2022/06/07 11:19:02;;;;;;;3.50;1.15;;;20.20;52.10;;;;;;5016904;28;20423;-69
2022/06/07 11:21:32;;;;;;;1.33;1.00;;;20.20;51.70;;;;;;5022062;28;20489;-69
2022/06/07 11:24:16;;;;;;;1.42;1.13;;;20.20;51.60;;;;;;5025200;28;20506;-69
2022/06/07 11:27:04;;;;;;;2.75;1.10;;;20.20;52.20;;;;;;5022464;28;20483;-66
2022/06/07 11:29:33;;;;;;;1.50;1.10;;;20.30;51.30;;;;;;5021487;28;20511;-69
2022/06/07 11:32:02;;;;;;;1.63;1.00;;;20.30;52.30;;;;;;5022773;28;20971;-72
2022/06/07 11:34:31;;;;;;;1.90;1.30;;;20.30;51.50;;;;;;5018203;28;20467;-72
2022/06/07 11:37:02;;;;;;;2.90;1.40;;;20.20;53.60;;;;;;5021927;28;20438;-70
2022/06/07 11:39:53;;;;;;;1.70;1.00;;;20.20;52.50;;;;;;5019763;28;20518;-70
2022/06/07 11:42:31;;;;;;;3.15;1.40;;;20.00;53.20;;;;;;5019749;28;20935;-71
2022/06/07 11:45:14;;;;;;;2.38;1.20;;;19.90;54.00;;;;;;5022920;28;20414;-71
2022/06/07 11:48:09;;;;;;;3.28;1.70;;;19.90;54.70;;;;;;5015538;28;20434;-70
2022/06/07 11:50:42;;;;;;;2.95;1.70;;;19.90;56.10;;;;;;5016935;28;20446;-72
2022/06/07 11:53:25;;;;;;;4.03;1.83;;;19.70;58.40;;;;;;5021081;28;20430;-71
2022/06/07 11:56:03;;;;;;;2.00;1.50;;;19.50;59.40;;;;;;5018434;28;20518;-71
2022/06/07 11:59:01;;;;;;;3.63;1.65;;;19.30;59.60;;;;;;5015296;28;20523;-70
2022/06/07 12:01:40;;;;;;;4.28;1.60;;;19.40;61.20;;;;;;4956966;28;20444;-69
2022/06/07 12:04:29;;;;;;;2.03;1.35;;;19.40;61.40;;;;;;5011777;28;20439;-71
2022/06/07 12:06:58;;;;;;;3.20;1.85;;;19.50;63.80;;;;;;5017298;28;20451;-71
2022/06/07 12:09:28;;;;;;;7.53;3.75;;;19.40;65.80;;;;;;5012112;28;20768;-70
2022/06/07 12:11:56;;;;;;;2.43;1.70;;;19.30;68.70;;;;;;5017380;28;20461;-71
2022/06/07 12:14:30;;;;;;;2.83;1.80;;;19.20;68.00;;;;;;5017153;28;20435;-72
2022/06/07 12:17:00;;;;;;;2.83;1.60;;;19.00;70.80;;;;;;5020314;28;20449;-72
2022/06/07 12:19:29;;;;;;;2.40;1.90;;;18.80;73.20;;;;;;5022429;28;21290;-72
2022/06/07 12:22:02;;;;;;;3.77;2.30;;;18.50;76.80;;;;;;5024648;28;20460;-73
2022/06/07 12:24:31;;;;;;;4.03;2.80;;;18.30;77.90;;;;;;5027111;28;20454;-73
2022/06/07 12:27:14;;;;;;;3.10;2.35;;;18.30;78.30;;;;;;5025833;28;20439;-72
2022/06/07 12:29:44;;;;;;;3.42;2.08;;;18.50;77.80;;;;;;5026140;28;20567;-72
2022/06/07 12:32:18;;;;;;;3.53;2.10;;;18.60;76.50;;;;;;5022171;28;20429;-70
2022/06/07 12:34:45;;;;;;;2.20;1.90;;;18.80;75.20;;;;;;5018230;28;20615;-72
2022/06/07 12:37:23;;;;;;;2.30;1.70;;;19.10;75.90;;;;;;5020041;28;20636;-72
2022/06/07 12:39:53;;;;;;;2.65;2.00;;;19.40;73.10;;;;;;5017960;28;20434;-70
2022/06/07 12:42:23;;;;;;;2.63;2.20;;;19.80;72.60;;;;;;5021467;28;20443;-70
2022/06/07 12:44:53;;;;;;;2.50;1.70;;;19.80;66.60;;;;;;5023523;28;20437;-72
2022/06/07 12:47:26;;;;;;;2.80;1.67;;;19.80;65.90;;;;;;5021712;28;20450;-70
2022/06/07 12:49:54;;;;;;;2.10;1.80;;;20.00;68.20;;;;;;5022256;28;20573;-70
2022/06/07 12:52:25;;;;;;;2.20;1.50;;;20.10;65.00;;;;;;5019229;28;20443;-70
2022/06/07 12:54:54;;;;;;;2.53;1.98;;;19.90;65.50;;;;;;5016927;28;21141;-69
2022/06/07 12:57:27;;;;;;;2.40;1.90;;;19.60;68.90;;;;;;5020252;28;20430;-72
2022/06/07 13:00:00;;;;;;;2.55;2.10;;;19.40;72.10;;;;;;5021516;28;20895;-75
2022/06/07 13:02:33;;;;;;;2.70;2.10;;;19.20;74.40;;;;;;5021311;28;20769;-76
2022/06/07 13:05:06;;;;;;;3.00;1.90;;;19.00;76.20;;;;;;5022565;28;20525;-73
2022/06/07 13:07:42;;;;;;;3.45;2.50;;;18.90;76.30;;;;;;5022958;28;20817;-75
2022/06/07 13:10:14;;;;;;;3.40;2.17;;;18.90;77.50;;;;;;5019639;28;20434;-75
2022/06/07 13:12:45;;;;;;;3.50;1.80;;;19.00;75.80;;;;;;5017619;28;20909;-75
2022/06/07 13:15:17;;;;;;;2.67;1.90;;;19.00;73.80;;;;;;5019231;28;20427;-75
2022/06/07 13:17:56;;;;;;;2.60;2.08;;;19.10;73.60;;;;;;5022484;28;20890;-74
2022/06/07 13:20:29;;;;;;;2.80;2.10;;;19.10;75.30;;;;;;5017910;28;20754;-75
2022/06/07 13:22:57;;;;;;;2.50;1.97;;;19.30;75.50;;;;;;5021300;28;21333;-74
2022/06/07 13:25:28;;;;;;;2.22;1.67;;;19.60;72.60;;;;;;5020765;28;20498;-74